createdAt,value
2023-05-01T00:01:10.503Z,9.18
2023-05-01T00:06:14.985Z,7.78
2023-05-01T00:11:16.675Z,6.55
2023-05-01T00:16:20.734Z,11.45
2023-05-01T00:21:23.996Z,9.73
2023-05-01T00:26:28.235Z,8.80
2023-05-01T00:31:31.479Z,7.28
2023-05-01T00:36:33.252Z,7.03
2023-05-01T00:41:35.213Z,7.07
2023-05-01T00:46:40.726Z,9.95
2023-05-01T00:51:43.058Z,7.70
2023-05-01T00:56:47.468Z,9.30
2023-05-01T01:01:54.938Z,8.27
2023-05-01T01:07:07.869Z,8.05
2023-05-01T01:12:17.933Z,7.88
2023-05-01T01:17:27.870Z,9.30
2023-05-01T01:22:33.628Z,5.82
2023-05-01T01:28:04.837Z,9.65
2023-05-01T01:33:30.761Z,10.75
2023-05-01T01:38:42.453Z,9.52
2023-05-01T01:43:53.207Z,6.68
2023-05-01T01:48:58.005Z,9.25
2023-05-01T01:54:03.409Z,8.00
2023-05-01T01:59:07.012Z,7.28
2023-05-01T02:04:12.134Z,7.22
2023-05-01T02:09:21.350Z,7.10
2023-05-01T02:14:26.196Z,7.60
2023-05-01T02:19:34.008Z,6.93
2023-05-01T02:29:39.627Z,7.65
2023-05-01T02:34:41.204Z,8.85
2023-05-01T02:39:44.184Z,10.98
2023-05-01T02:44:51.859Z,11.20
2023-05-01T02:55:01.030Z,9.25
2023-05-01T03:00:02.738Z,9.82
2023-05-01T03:05:04.753Z,9.95
2023-05-01T03:10:08.448Z,9.30
2023-05-01T03:15:10.862Z,10.48
2023-05-01T03:20:52.811Z,9.65
2023-05-01T03:25:58.573Z,9.93
2023-05-01T03:31:00.207Z,6.43
2023-05-01T03:36:04.753Z,8.75
2023-05-01T03:41:10.320Z,7.22
2023-05-01T03:46:11.973Z,9.82
2023-05-01T03:51:13.642Z,11.93
2023-05-01T03:56:18.763Z,9.90
2023-05-01T04:01:20.403Z,8.32
2023-05-01T04:06:22.056Z,9.68
2023-05-01T04:11:25.114Z,9.00
2023-05-01T04:16:26.796Z,11.70
2023-05-01T04:21:28.534Z,10.52
2023-05-01T04:26:31.566Z,11.10
2023-05-01T04:31:33.212Z,11.75
2023-05-01T04:36:34.959Z,8.95
2023-05-01T04:41:37.942Z,12.27
2023-05-01T04:46:39.583Z,8.57
2023-05-01T04:51:43.470Z,10.35
2023-05-01T04:56:46.592Z,11.82
2023-05-01T05:01:50.713Z,9.07
2023-05-01T05:06:52.393Z,9.27
2023-05-01T05:11:55.603Z,11.63
2023-05-01T05:16:57.326Z,10.07
2023-05-01T05:21:59.291Z,10.52
2023-05-01T05:27:02.213Z,10.02
2023-05-01T05:32:03.979Z,10.75
2023-05-01T05:37:05.665Z,13.05
2023-05-01T05:42:10.867Z,11.57
2023-05-01T05:47:12.502Z,10.43
2023-05-01T05:52:16.400Z,9.98
2023-05-01T05:57:21.696Z,9.90
2023-05-01T06:02:23.456Z,10.30
2023-05-01T06:07:25.122Z,11.68
2023-05-01T06:12:28.240Z,8.98
2023-05-01T06:17:30.662Z,10.25
2023-05-01T06:22:32.430Z,10.88
2023-05-01T06:27:35.451Z,11.95
2023-05-01T06:32:37.134Z,12.15
2023-05-01T06:37:38.824Z,10.07
2023-05-01T06:42:44.315Z,10.85
2023-05-01T06:47:46.032Z,8.68
2023-05-01T06:52:49.153Z,7.68
2023-05-01T06:57:54.709Z,10.32
2023-05-01T07:03:03.636Z,14.35
2023-05-01T07:08:05.279Z,11.18
2023-05-01T07:18:25.246Z,11.98
2023-05-01T07:23:26.880Z,8.18
2023-05-01T07:28:29.981Z,9.73
2023-05-01T07:33:31.602Z,12.80
2023-05-01T07:38:33.189Z,11.13
2023-05-01T07:43:37.207Z,10.27
2023-05-01T07:48:39.224Z,9.07
2023-05-01T07:53:41.300Z,9.45
2023-05-01T07:58:44.562Z,10.82
2023-05-01T08:03:51.048Z,10.90
2023-05-01T08:08:54.036Z,11.73
2023-05-01T08:13:57.059Z,9.52
2023-05-01T08:18:58.675Z,7.70
2023-05-01T08:24:01.550Z,9.02
2023-05-01T08:29:08.044Z,7.63
2023-05-01T08:34:10.745Z,12.93
2023-05-01T08:39:12.312Z,10.07
2023-05-01T08:44:17.247Z,11.30
2023-05-01T08:49:25.067Z,11.40
2023-05-01T08:54:29.241Z,8.75
2023-05-01T08:59:43.430Z,8.60
2023-05-01T09:04:46.486Z,9.25
2023-05-01T09:09:48.151Z,8.70
2023-05-01T09:14:59.892Z,10.05
2023-05-01T09:20:02.478Z,10.60
2023-05-01T09:25:04.556Z,11.45
2023-05-01T09:30:08.985Z,12.00
2023-05-01T09:35:13.244Z,10.88
2023-05-01T09:40:15.123Z,10.43
2023-05-01T09:45:20.616Z,9.35
2023-05-01T09:50:31.383Z,10.70
2023-05-01T09:55:35.115Z,12.52
2023-05-01T10:00:48.841Z,13.43
2023-05-01T10:05:52.818Z,12.82
2023-05-01T10:11:03.208Z,12.13
2023-05-01T10:16:07.649Z,11.90
2023-05-01T10:21:09.240Z,11.90
2023-05-01T10:26:17.400Z,14.02
2023-05-01T10:31:20.481Z,13.77
2023-05-01T10:36:27.345Z,12.00
2023-05-01T10:42:06.394Z,15.63
2023-05-01T10:47:46.533Z,14.13
2023-05-01T10:53:17.781Z,10.95
2023-05-01T10:58:57.340Z,9.50
2023-05-01T11:04:02.286Z,11.85
2023-05-01T11:09:39.502Z,11.77
2023-05-01T11:15:04.722Z,10.48
2023-05-01T11:20:09.291Z,11.15
2023-05-01T11:25:20.435Z,12.18
2023-05-01T11:30:24.686Z,11.95
2023-05-01T11:35:28.396Z,11.05
2023-05-01T11:40:33.068Z,9.77
2023-05-01T11:45:37.696Z,11.30
2023-05-01T11:50:45.255Z,10.10
2023-05-01T11:55:46.843Z,8.57
2023-05-01T12:00:50.761Z,10.43
2023-05-01T12:05:53.637Z,10.40
2023-05-01T12:10:59.111Z,10.63
2023-05-01T12:16:00.911Z,12.07
2023-05-01T12:21:04.062Z,9.35
2023-05-01T12:26:16.543Z,9.93
2023-05-01T12:31:20.576Z,11.05
2023-05-01T12:36:24.418Z,9.80
2023-05-01T12:41:41.117Z,6.38
2023-05-01T12:46:44.545Z,5.20
2023-05-01T12:51:52.244Z,5.60
2023-05-01T13:02:01.070Z,6.25
2023-05-01T13:07:11.292Z,4.60
2023-05-01T13:12:16.044Z,5.55
2023-05-01T13:17:23.405Z,5.00
2023-05-01T13:22:31.331Z,5.10
2023-05-01T13:27:33.013Z,5.43
2023-05-01T13:32:39.176Z,6.82
2023-05-01T13:37:42.255Z,7.07
2023-05-01T13:42:43.982Z,6.88
2023-05-01T13:47:45.563Z,6.65
2023-05-01T13:52:48.579Z,8.05
2023-05-01T13:57:51.963Z,7.15
2023-05-01T14:02:53.795Z,5.75
2023-05-01T14:07:58.746Z,4.82
2023-05-01T14:13:12.102Z,5.40
2023-05-01T14:18:16.351Z,4.38
2023-05-01T14:23:19.317Z,4.85
2023-05-01T14:28:21.139Z,5.43
2023-05-01T14:33:22.852Z,5.20
2023-05-01T14:38:25.945Z,4.40
2023-05-01T14:43:27.729Z,7.28
2023-05-01T14:48:35.265Z,4.45
2023-05-01T14:58:42.945Z,3.88
2023-05-01T15:03:47.986Z,3.45
2023-05-01T15:09:07.959Z,3.28
2023-05-01T15:14:09.672Z,5.93
2023-05-01T15:19:11.377Z,3.63
2023-05-01T15:24:14.336Z,2.13
2023-05-01T15:29:15.944Z,1.20
2023-05-01T15:34:23.488Z,1.10
2023-05-01T15:39:29.087Z,1.30
2023-05-01T15:44:30.902Z,1.30
2023-05-01T15:49:32.497Z,1.00
2023-05-01T15:54:35.444Z,3.38
2023-05-01T15:59:40.016Z,1.40
2023-05-01T16:04:47.435Z,1.75
2023-05-01T16:09:58.127Z,9.55
2023-05-01T16:15:01.915Z,1.77
2023-05-01T16:20:09.134Z,1.67
2023-05-01T16:25:12.845Z,2.30
2023-05-01T16:30:14.889Z,3.15
2023-05-01T16:35:19.832Z,1.00
2023-05-01T16:40:23.066Z,1.60
2023-05-01T16:45:32.095Z,0.93
2023-05-01T16:50:36.069Z,3.22
2023-05-01T16:55:39.174Z,1.67
2023-05-01T17:00:40.865Z,2.30
2023-05-01T17:05:42.441Z,3.53
2023-05-01T17:10:50.101Z,2.30
2023-05-01T17:15:51.707Z,1.90
2023-05-01T17:20:53.353Z,2.20
2023-05-01T17:25:56.330Z,20.30
2023-05-01T17:31:00.650Z,2.53
2023-05-01T17:36:02.235Z,2.63
2023-05-01T17:41:05.271Z,3.03
2023-05-01T17:46:07.209Z,21.23
2023-05-01T17:51:10.062Z,6.43
2023-05-01T17:56:15.173Z,8.63
2023-05-01T18:01:18.868Z,7.28
2023-05-01T18:06:20.536Z,5.50
2023-05-01T18:11:23.554Z,4.65
2023-05-01T18:16:25.467Z,4.78
2023-05-01T18:21:29.177Z,14.30
2023-05-01T18:26:34.406Z,10.63
2023-05-01T18:31:36.087Z,7.70
2023-05-01T18:36:39.132Z,7.95
2023-05-01T18:41:45.117Z,9.70
2023-05-01T18:46:46.702Z,11.90
2023-05-01T18:51:50.406Z,14.43
2023-05-01T18:56:55.844Z,11.70
2023-05-01T19:01:59.543Z,15.90
2023-05-01T19:07:01.093Z,16.98
2023-05-01T19:12:04.401Z,15.75
2023-05-01T19:17:05.997Z,13.70
2023-05-01T19:22:07.594Z,12.95
2023-05-01T19:27:10.629Z,11.20
2023-05-01T19:32:13.457Z,13.65
2023-05-01T19:37:15.124Z,12.38
2023-05-01T19:42:18.170Z,12.52
2023-05-01T19:47:22.078Z,15.63
2023-05-01T19:52:25.172Z,16.25
2023-05-01T19:57:28.140Z,16.70
2023-05-01T20:02:29.843Z,18.13
2023-05-01T20:07:33.768Z,18.38
2023-05-01T20:12:39.113Z,15.30
2023-05-01T20:17:42.506Z,14.18
2023-05-01T20:22:44.175Z,15.00
2023-05-01T20:27:49.393Z,13.05
2023-05-01T20:32:50.965Z,16.20
2023-05-01T20:37:52.639Z,10.82
2023-05-01T20:42:55.664Z,11.57
2023-05-01T20:47:57.729Z,11.48
2023-05-01T20:52:59.442Z,13.68
2023-05-01T20:58:02.433Z,10.05
2023-05-01T21:03:04.202Z,11.57
2023-05-01T21:08:06.044Z,10.05
2023-05-01T21:13:16.158Z,8.20
2023-05-01T21:18:18.162Z,9.00
2023-05-01T21:23:19.923Z,9.50
2023-05-01T21:28:22.943Z,8.13
2023-05-01T21:33:26.338Z,9.32
2023-05-01T21:38:27.926Z,10.00
2023-05-01T21:43:35.305Z,8.15
2023-05-01T21:48:37.044Z,7.82
2023-05-01T21:53:40.846Z,8.40
2023-05-01T21:58:43.856Z,7.45
2023-05-01T22:03:48.324Z,8.07
2023-05-01T22:08:50.514Z,8.57
2023-05-01T22:13:53.455Z,8.50
2023-05-01T22:18:54.992Z,8.23
2023-05-01T22:23:57.886Z,8.05
2023-05-01T22:29:00.838Z,7.30
2023-05-01T22:34:02.452Z,8.38
2023-05-01T22:39:04.261Z,5.82
2023-05-01T22:44:07.394Z,6.75
2023-05-01T22:49:09.008Z,7.25
2023-05-01T22:54:10.687Z,7.43
2023-05-01T22:59:17.451Z,7.57
2023-05-01T23:04:19.041Z,7.90
2023-05-01T23:09:20.715Z,5.68
2023-05-01T23:14:23.688Z,6.43
2023-05-01T23:19:45.647Z,9.70
2023-05-01T23:24:48.780Z,8.73
2023-05-01T23:29:58.827Z,6.70
2023-05-01T23:35:04.874Z,5.85
2023-05-01T23:40:07.650Z,5.63
2023-05-01T23:45:11.176Z,7.93
2023-05-01T23:50:12.966Z,8.25
2023-05-01T23:55:14.641Z,8.40
